createdAt,value
2018-03-23T00:00:44.245Z,2.09
2018-03-23T00:01:44.255Z,2.13
2018-03-23T00:02:44.249Z,2.10
2018-03-23T00:03:44.270Z,2.16
2018-03-23T00:04:44.262Z,2.17
2018-03-23T00:05:44.265Z,2.17
2018-03-23T00:06:44.269Z,2.16
2018-03-23T00:07:44.272Z,2.15
2018-03-23T00:08:44.269Z,2.19
2018-03-23T00:09:44.293Z,2.26
2018-03-23T00:10:44.281Z,2.20
2018-03-23T00:11:44.293Z,2.17
2018-03-23T00:12:44.293Z,2.17
2018-03-23T00:13:44.293Z,2.15
2018-03-23T00:14:44.296Z,2.20
2018-03-23T00:15:44.309Z,2.12
2018-03-23T00:16:44.307Z,2.12
2018-03-23T00:17:44.324Z,2.15
2018-03-23T00:18:44.313Z,2.10
2018-03-23T00:19:44.320Z,2.08
2018-03-23T00:20:44.329Z,2.04
2018-03-23T00:21:44.330Z,2.23
2018-03-23T00:22:44.333Z,2.19
2018-03-23T00:23:44.342Z,2.19
2018-03-23T00:24:44.345Z,2.22
2018-03-23T00:25:44.345Z,2.17
2018-03-23T00:26:44.352Z,2.15
2018-03-23T00:27:44.352Z,2.19
2018-03-23T00:28:44.355Z,2.09
2018-03-23T00:29:44.356Z,2.12
2018-03-23T00:30:44.367Z,2.06
2018-03-23T00:31:44.369Z,2.20
2018-03-23T00:32:44.374Z,2.15
2018-03-23T00:33:44.380Z,2.20
2018-03-23T00:34:44.380Z,2.20
2018-03-23T00:35:44.380Z,2.20
2018-03-23T00:36:44.398Z,2.09
2018-03-23T00:37:44.394Z,2.15
2018-03-23T00:38:44.394Z,2.10
2018-03-23T00:39:44.404Z,2.08
2018-03-23T00:40:44.406Z,2.10
2018-03-23T00:41:44.412Z,2.08
2018-03-23T00:42:44.421Z,2.15
2018-03-23T00:43:44.418Z,2.09
2018-03-23T00:44:44.424Z,1.93
2018-03-23T00:45:44.426Z,1.99
2018-03-23T00:46:44.430Z,2.04
2018-03-23T00:47:44.434Z,1.90
2018-03-23T00:48:44.448Z,1.91
2018-03-23T00:49:44.446Z,1.93
2018-03-23T00:50:44.448Z,1.91
2018-03-23T00:51:44.448Z,1.83
2018-03-23T00:52:44.459Z,1.91
2018-03-23T00:53:44.460Z,1.91
2018-03-23T00:54:44.469Z,1.85
2018-03-23T00:55:44.469Z,1.90
2018-03-23T00:56:44.477Z,1.85
2018-03-23T00:57:44.477Z,1.93
2018-03-23T00:58:44.481Z,1.94
2018-03-23T00:59:44.487Z,2.08
2018-03-23T01:00:44.495Z,1.94
2018-03-23T01:01:44.495Z,2.04
2018-03-23T01:02:44.499Z,2.10
2018-03-23T01:03:44.503Z,2.15
2018-03-23T01:04:44.509Z,2.09
2018-03-23T01:05:44.522Z,2.06
2018-03-23T01:06:44.521Z,2.13
2018-03-23T01:07:44.518Z,2.06
2018-03-23T01:08:44.525Z,1.90
2018-03-23T01:09:44.525Z,1.90
2018-03-23T01:10:44.527Z,1.90
2018-03-23T01:11:44.534Z,1.97
2018-03-23T01:12:44.541Z,1.90
2018-03-23T01:13:44.544Z,1.89
2018-03-23T01:14:44.543Z,1.87
2018-03-23T01:15:44.548Z,2.02
2018-03-23T01:16:44.553Z,2.13
2018-03-23T01:17:44.559Z,2.04
2018-03-23T01:18:44.566Z,2.04
2018-03-23T01:19:44.566Z,2.04
2018-03-23T01:20:44.571Z,2.15
2018-03-23T01:21:44.577Z,2.16
2018-03-23T01:22:44.580Z,2.06
2018-03-23T01:23:44.586Z,2.08
2018-03-23T01:24:44.595Z,2.10
2018-03-23T01:25:44.592Z,2.10
2018-03-23T01:26:44.596Z,2.16
2018-03-23T01:27:44.598Z,1.99
2018-03-23T01:28:44.708Z,1.85
2018-03-23T01:29:44.608Z,2.02
2018-03-23T01:30:44.619Z,1.97
2018-03-23T01:31:44.614Z,1.91
2018-03-23T01:32:44.616Z,1.93
2018-03-23T01:33:44.622Z,1.90
2018-03-23T01:34:44.624Z,1.90
2018-03-23T01:35:44.629Z,1.90
2018-03-23T01:36:44.640Z,1.93
2018-03-23T01:37:44.641Z,1.90
2018-03-23T01:38:44.646Z,1.94
2018-03-23T01:39:44.647Z,1.87
2018-03-23T01:40:44.656Z,1.90
2018-03-23T01:41:44.659Z,1.94
2018-03-23T01:42:44.665Z,1.91
2018-03-23T01:43:44.665Z,2.04
2018-03-23T01:44:44.680Z,2.01
2018-03-23T01:45:44.673Z,1.90
2018-03-23T01:46:44.678Z,1.94
2018-03-23T01:47:44.682Z,1.97
2018-03-23T01:48:44.697Z,1.94
2018-03-23T01:49:44.694Z,1.99
2018-03-23T01:50:44.691Z,1.89
2018-03-23T01:51:44.694Z,1.94
2018-03-23T01:52:44.705Z,1.94
2018-03-23T01:53:44.704Z,1.99
2018-03-23T01:54:44.714Z,2.04
2018-03-23T01:55:44.708Z,2.06
2018-03-23T01:56:44.715Z,2.10
2018-03-23T01:57:44.721Z,2.08
2018-03-23T01:58:44.721Z,2.12
2018-03-23T01:59:44.727Z,2.04
2018-03-23T02:00:44.753Z,2.13
2018-03-23T02:01:44.741Z,2.02
2018-03-23T02:02:44.742Z,2.15
2018-03-23T02:03:44.744Z,2.10
2018-03-23T02:04:44.754Z,2.12
2018-03-23T02:05:44.758Z,2.06
2018-03-23T02:06:44.767Z,2.17
2018-03-23T02:07:44.765Z,2.22
2018-03-23T02:08:44.769Z,2.17
2018-03-23T02:09:44.783Z,2.19
2018-03-23T02:10:44.774Z,2.19
2018-03-23T02:11:44.776Z,2.20
2018-03-23T02:12:44.788Z,2.30
2018-03-23T02:13:44.789Z,2.33
2018-03-23T02:14:44.790Z,2.30
2018-03-23T02:15:44.806Z,2.26
2018-03-23T02:16:44.801Z,2.19
2018-03-23T02:17:44.806Z,2.15
2018-03-23T02:18:44.815Z,2.09
2018-03-23T02:19:44.810Z,2.09
2018-03-23T02:20:44.816Z,2.10
2018-03-23T02:21:44.822Z,2.13
2018-03-23T02:22:44.826Z,2.10
2018-03-23T02:23:44.826Z,2.06
2018-03-23T02:24:44.840Z,2.04
2018-03-23T02:25:44.845Z,2.16
2018-03-23T02:26:44.844Z,2.06
2018-03-23T02:27:44.846Z,2.06
2018-03-23T02:28:44.854Z,2.17
2018-03-23T02:29:44.859Z,2.09
2018-03-23T02:30:44.859Z,2.20
2018-03-23T02:31:44.862Z,2.20
2018-03-23T02:32:44.866Z,2.17
2018-03-23T02:33:44.872Z,2.17
2018-03-23T02:34:44.877Z,2.20
2018-03-23T02:35:44.878Z,2.20
2018-03-23T02:36:44.886Z,2.20
2018-03-23T02:37:44.894Z,2.26
2018-03-23T02:38:44.888Z,2.15
2018-03-23T02:39:44.896Z,2.22
2018-03-23T02:40:44.903Z,2.17
2018-03-23T02:41:44.908Z,2.09
2018-03-23T02:42:44.917Z,2.10
2018-03-23T02:43:44.923Z,2.12
2018-03-23T02:44:44.922Z,2.09
2018-03-23T02:45:44.930Z,2.12
2018-03-23T02:46:44.927Z,2.09
2018-03-23T02:47:44.929Z,2.08
2018-03-23T02:48:44.945Z,2.31
2018-03-23T02:49:44.942Z,2.19
2018-03-23T02:50:44.943Z,2.09
2018-03-23T02:51:44.954Z,2.10
2018-03-23T02:52:44.948Z,2.06
2018-03-23T02:53:44.954Z,2.16
2018-03-23T02:54:44.966Z,2.23
2018-03-23T02:55:44.962Z,2.22
2018-03-23T02:56:44.965Z,2.16
2018-03-23T02:57:44.971Z,2.26
2018-03-23T02:58:44.973Z,2.19
2018-03-23T02:59:44.980Z,2.22
2018-03-23T03:00:44.994Z,2.20
2018-03-23T03:01:44.988Z,2.16
2018-03-23T03:02:44.992Z,2.16
2018-03-23T03:03:44.997Z,2.17
2018-03-23T03:04:45.001Z,2.16
2018-03-23T03:05:45.012Z,2.20
2018-03-23T03:06:45.014Z,2.33
2018-03-23T03:07:45.017Z,2.28
2018-03-23T03:08:45.037Z,2.31
2018-03-23T03:09:45.021Z,2.22
2018-03-23T03:10:45.025Z,2.26
2018-03-23T03:11:45.027Z,2.16
2018-03-23T03:12:45.033Z,2.22
2018-03-23T03:13:45.045Z,2.17
2018-03-23T03:14:45.040Z,2.13
2018-03-23T03:15:45.044Z,2.16
2018-03-23T03:16:45.050Z,2.16
2018-03-23T03:17:45.061Z,2.19
2018-03-23T03:18:45.060Z,2.19
2018-03-23T03:19:45.062Z,2.12
2018-03-23T03:20:45.068Z,2.17
2018-03-23T03:21:45.071Z,2.09
2018-03-23T03:22:45.078Z,2.08
2018-03-23T03:23:45.080Z,2.19
2018-03-23T03:24:45.091Z,2.20
2018-03-23T03:25:45.092Z,2.22
2018-03-23T03:26:45.096Z,2.16
2018-03-23T03:27:45.099Z,2.16
2018-03-23T03:28:45.099Z,2.13
2018-03-23T03:29:45.105Z,2.06
2018-03-23T03:30:45.115Z,2.16
2018-03-23T03:31:45.112Z,2.15
2018-03-23T03:32:45.120Z,2.17
2018-03-23T03:33:45.119Z,2.26
2018-03-23T03:34:45.124Z,2.22
2018-03-23T03:35:45.128Z,2.34
2018-03-23T03:36:45.143Z,2.27
2018-03-23T03:37:45.142Z,2.31
2018-03-23T03:38:45.140Z,2.26
2018-03-23T03:39:45.152Z,2.31
2018-03-23T03:40:45.169Z,2.33
2018-03-23T03:41:45.157Z,2.35
2018-03-23T03:42:45.176Z,2.34
2018-03-23T03:43:45.165Z,2.35
2018-03-23T03:44:45.170Z,2.45
2018-03-23T03:45:45.176Z,2.37
2018-03-23T03:46:45.180Z,2.45
2018-03-23T03:47:45.181Z,2.44
2018-03-23T03:48:45.188Z,2.46
2018-03-23T03:49:45.210Z,2.46
2018-03-23T03:50:45.197Z,2.52
2018-03-23T03:51:45.196Z,2.44
2018-03-23T03:52:45.199Z,2.55
2018-03-23T03:53:45.207Z,2.55
2018-03-23T03:54:45.213Z,2.56
2018-03-23T03:55:45.212Z,2.52
2018-03-23T03:56:45.219Z,2.53
2018-03-23T03:57:45.224Z,2.40
2018-03-23T03:58:45.228Z,2.28
2018-03-23T03:59:45.229Z,2.30
2018-03-23T04:00:45.245Z,2.38
2018-03-23T04:01:45.281Z,2.37
2018-03-23T04:02:45.248Z,2.41
2018-03-23T04:03:45.251Z,2.41
2018-03-23T04:04:45.255Z,2.31
2018-03-23T04:05:45.266Z,2.30
2018-03-23T04:06:45.272Z,2.35
2018-03-23T04:07:45.267Z,2.44
2018-03-23T04:08:45.320Z,2.40
2018-03-23T04:09:45.278Z,2.34
2018-03-23T04:10:45.283Z,2.41
2018-03-23T04:11:45.285Z,2.49
2018-03-23T04:12:45.297Z,2.41
2018-03-23T04:13:45.292Z,2.26
2018-03-23T04:14:45.294Z,2.20
2018-03-23T04:15:45.299Z,2.17
2018-03-23T04:16:45.303Z,2.31
2018-03-23T04:17:45.311Z,2.28
2018-03-23T04:18:45.317Z,2.37
2018-03-23T04:19:45.316Z,2.37
2018-03-23T04:20:45.326Z,2.40
2018-03-23T04:21:45.333Z,2.46
2018-03-23T04:22:45.335Z,2.48
2018-03-23T04:23:45.336Z,2.40
2018-03-23T04:24:45.346Z,2.38
2018-03-23T04:25:45.347Z,2.34
2018-03-23T04:26:45.352Z,2.44
2018-03-23T04:27:45.354Z,2.45
2018-03-23T04:28:45.362Z,2.44
2018-03-23T04:29:45.366Z,2.45
2018-03-23T04:30:45.376Z,2.48
2018-03-23T04:31:45.370Z,2.49
2018-03-23T04:32:45.371Z,2.45
2018-03-23T04:33:45.376Z,2.53
2018-03-23T04:34:45.378Z,2.48
2018-03-23T04:35:45.385Z,2.41
2018-03-23T04:36:45.397Z,2.46
2018-03-23T04:37:45.394Z,2.44
2018-03-23T04:38:45.403Z,2.52
2018-03-23T04:39:45.420Z,2.53
2018-03-23T04:40:45.411Z,2.49
2018-03-23T04:41:45.415Z,2.45
2018-03-23T04:42:45.424Z,2.38
2018-03-23T04:43:45.422Z,2.49
2018-03-23T04:44:45.426Z,2.48
2018-03-23T04:45:45.431Z,2.49
2018-03-23T04:46:45.437Z,2.44
2018-03-23T04:47:45.441Z,2.41
2018-03-23T04:48:45.455Z,2.34
2018-03-23T04:49:45.445Z,2.41
2018-03-23T04:50:45.455Z,2.40
2018-03-23T04:51:45.453Z,2.52
2018-03-23T04:52:45.459Z,2.44
2018-03-23T04:53:45.464Z,2.45
2018-03-23T04:54:45.477Z,2.52
2018-03-23T04:55:45.475Z,2.40
2018-03-23T04:56:45.474Z,2.51
2018-03-23T04:57:45.483Z,2.56
2018-03-23T04:58:45.488Z,2.55
2018-03-23T04:59:45.487Z,2.51
2018-03-23T05:00:45.500Z,2.52
2018-03-23T05:01:45.503Z,2.58
2018-03-23T05:02:45.504Z,2.56
2018-03-23T05:03:45.511Z,2.56
2018-03-23T05:04:45.515Z,2.58
2018-03-23T05:05:45.520Z,2.53
2018-03-23T05:06:45.527Z,2.61
2018-03-23T05:07:45.524Z,2.58
2018-03-23T05:08:45.528Z,2.55
2018-03-23T05:09:45.536Z,2.52
2018-03-23T05:10:45.544Z,2.51
2018-03-23T05:11:45.538Z,2.49
2018-03-23T05:12:45.549Z,2.53
2018-03-23T05:13:45.551Z,2.55
2018-03-23T05:14:45.551Z,2.55
2018-03-23T05:15:45.560Z,2.52
2018-03-23T05:16:45.566Z,2.51
2018-03-23T05:17:45.566Z,2.61
2018-03-23T05:18:45.578Z,2.59
2018-03-23T05:19:45.576Z,2.52
2018-03-23T05:20:45.583Z,2.51
2018-03-23T05:21:45.584Z,2.52
2018-03-23T05:22:45.592Z,2.48
2018-03-23T05:23:45.591Z,2.38
2018-03-23T05:24:45.636Z,2.38
2018-03-23T05:25:45.605Z,2.55
2018-03-23T05:26:45.612Z,2.53
2018-03-23T05:27:45.610Z,2.51
2018-03-23T05:28:45.619Z,2.59
2018-03-23T05:29:45.620Z,2.46
2018-03-23T05:30:45.635Z,2.58
2018-03-23T05:31:45.625Z,2.56
2018-03-23T05:32:46.976Z,2.56
2018-03-23T05:33:52.794Z,2.52
2018-03-23T05:35:49.649Z,2.56
2018-03-23T05:36:49.626Z,2.58
2018-03-23T05:38:53.638Z,2.55
2018-03-23T05:39:53.613Z,2.56
2018-03-23T05:41:57.597Z,2.56
2018-03-23T05:42:57.599Z,2.55
2018-03-23T05:45:01.623Z,2.66
2018-03-23T05:46:01.603Z,2.61
2018-03-23T05:48:05.611Z,2.64
2018-03-23T05:49:05.594Z,2.55
2018-03-23T05:51:09.594Z,2.63
2018-03-23T05:52:09.599Z,2.40
2018-03-23T05:54:13.620Z,2.40
2018-03-23T05:55:13.597Z,2.46
2018-03-23T05:57:17.601Z,2.40
2018-03-23T05:58:17.606Z,2.44
2018-03-23T06:00:21.621Z,2.41
2018-03-23T06:01:21.594Z,2.41
2018-03-23T06:02:21.599Z,2.46
2018-03-23T06:03:21.602Z,2.48
2018-03-23T06:04:21.610Z,2.46
2018-03-23T06:05:21.612Z,2.41
2018-03-23T06:06:21.615Z,2.40
2018-03-23T06:07:21.624Z,2.40
2018-03-23T06:08:21.624Z,2.45
2018-03-23T06:09:21.627Z,2.33
2018-03-23T06:10:21.634Z,2.40
2018-03-23T06:11:21.636Z,2.44
2018-03-23T06:12:21.640Z,2.41
2018-03-23T06:13:21.646Z,2.49
2018-03-23T06:14:21.651Z,2.45
2018-03-23T06:15:21.650Z,2.63
2018-03-23T06:16:21.656Z,2.53
2018-03-23T06:17:21.672Z,2.71
2018-03-23T06:18:21.666Z,2.71
2018-03-23T06:19:21.672Z,2.70
2018-03-23T06:20:21.674Z,2.61
2018-03-23T06:21:21.680Z,2.56
2018-03-23T06:22:21.685Z,2.61
2018-03-23T06:23:21.688Z,2.79
2018-03-23T06:24:21.694Z,2.79
2018-03-23T06:25:21.697Z,2.63
2018-03-23T06:26:21.708Z,2.70
2018-03-23T06:27:21.707Z,2.77
2018-03-23T06:28:21.715Z,2.79
2018-03-23T06:29:21.721Z,2.84
2018-03-23T06:30:21.720Z,2.79
2018-03-23T06:31:21.731Z,2.81
2018-03-23T06:32:21.728Z,2.76
2018-03-23T06:33:21.733Z,2.89
2018-03-23T06:34:21.737Z,2.85
2018-03-23T06:35:21.738Z,2.94
2018-03-23T06:36:21.746Z,2.89
2018-03-23T06:37:21.749Z,2.84
2018-03-23T06:38:21.754Z,2.87
2018-03-23T06:39:21.758Z,2.91
2018-03-23T06:40:21.764Z,2.88
2018-03-23T06:41:21.788Z,2.92
2018-03-23T06:42:21.772Z,2.92
2018-03-23T06:43:21.776Z,2.97
2018-03-23T06:44:21.784Z,2.94
2018-03-23T06:45:21.784Z,2.97
2018-03-23T06:46:21.792Z,2.95
2018-03-23T06:47:21.795Z,2.94
2018-03-23T06:48:21.798Z,2.97
2018-03-23T06:49:21.802Z,3.05
2018-03-23T06:50:21.809Z,2.87
2018-03-23T06:51:21.813Z,2.91
2018-03-23T06:52:21.818Z,2.92
2018-03-23T06:53:21.820Z,2.97
2018-03-23T06:54:21.825Z,2.91
2018-03-23T06:55:21.830Z,3.05
2018-03-23T06:56:21.834Z,2.94
2018-03-23T06:57:21.842Z,2.97
2018-03-23T06:58:21.842Z,2.97
2018-03-23T06:59:21.846Z,2.88
2018-03-23T07:00:21.851Z,2.88
2018-03-23T07:01:21.857Z,2.92
2018-03-23T07:02:21.859Z,2.97
2018-03-23T07:03:21.866Z,2.94
2018-03-23T07:04:21.875Z,2.98
2018-03-23T07:05:21.874Z,3.00
2018-03-23T07:06:21.879Z,3.05
2018-03-23T07:07:21.881Z,3.09
2018-03-23T07:08:21.891Z,3.06
2018-03-23T07:09:21.894Z,3.09
2018-03-23T07:10:21.895Z,3.12
2018-03-23T07:11:21.902Z,3.10
2018-03-23T07:12:21.906Z,3.09
2018-03-23T07:13:21.908Z,3.09
2018-03-23T07:14:21.915Z,3.05
2018-03-23T07:15:21.920Z,3.06
2018-03-23T07:16:21.998Z,2.95
2018-03-23T07:17:21.929Z,3.10
2018-03-23T07:18:21.932Z,3.07
2018-03-23T07:19:21.934Z,2.97
2018-03-23T07:20:21.939Z,3.03
2018-03-23T07:21:21.947Z,3.03
2018-03-23T07:22:21.950Z,3.03
2018-03-23T07:23:21.954Z,3.05
2018-03-23T07:24:21.961Z,3.05
2018-03-23T07:25:21.967Z,3.15
2018-03-23T07:26:21.971Z,3.12
2018-03-23T07:27:22.015Z,3.23
2018-03-23T07:28:21.976Z,3.31
2018-03-23T07:29:21.982Z,3.10
2018-03-23T07:30:21.985Z,3.13
2018-03-23T07:31:21.994Z,3.10
2018-03-23T07:32:21.998Z,3.09
2018-03-23T07:33:21.999Z,3.21
2018-03-23T07:34:22.008Z,3.20
2018-03-23T07:35:22.008Z,3.16
2018-03-23T07:37:22.037Z,3.15
2018-03-23T07:38:22.022Z,3.31
2018-03-23T07:39:22.025Z,3.25
2018-03-23T07:40:22.032Z,3.28
2018-03-23T07:41:22.033Z,3.25
2018-03-23T07:42:22.039Z,3.43
2018-03-23T07:43:22.043Z,3.42
2018-03-23T07:44:22.048Z,3.43
2018-03-23T07:45:22.053Z,3.47
2018-03-23T07:46:22.644Z,3.34
2018-03-23T07:47:22.063Z,3.42
2018-03-23T07:48:22.065Z,3.36
2018-03-23T07:49:22.073Z,3.39
2018-03-23T07:50:22.078Z,3.43
2018-03-23T07:51:22.081Z,3.62
2018-03-23T07:52:22.090Z,3.60
2018-03-23T07:53:22.094Z,3.65
2018-03-23T07:54:22.096Z,3.67
2018-03-23T07:55:22.101Z,3.70
2018-03-23T07:56:22.105Z,3.68
2018-03-23T07:57:22.134Z,3.65
2018-03-23T07:58:22.113Z,3.62
2018-03-23T07:59:22.118Z,3.62
2018-03-23T08:00:22.121Z,3.68
2018-03-23T08:01:22.129Z,3.78
2018-03-23T08:02:22.136Z,3.85
2018-03-23T08:03:22.139Z,3.96
2018-03-23T08:04:22.143Z,3.89
2018-03-23T08:05:22.153Z,3.89
2018-03-23T08:06:22.155Z,3.85
2018-03-23T08:07:22.160Z,3.92
2018-03-23T08:08:22.164Z,4.00
2018-03-23T08:09:22.173Z,4.06
2018-03-23T08:10:22.180Z,4.01
2018-03-23T08:11:22.180Z,4.14
2018-03-23T08:12:22.183Z,4.12
2018-03-23T08:13:22.189Z,4.19
2018-03-23T08:14:22.197Z,4.33
2018-03-23T08:15:22.198Z,4.19
2018-03-23T08:16:22.205Z,4.14
2018-03-23T08:17:22.211Z,4.22
2018-03-23T08:18:22.218Z,4.22
2018-03-23T08:19:22.220Z,4.28
2018-03-23T08:20:22.226Z,4.39
2018-03-23T08:21:22.233Z,4.24
2018-03-23T08:22:22.236Z,4.29
2018-03-23T08:23:22.243Z,4.14
2018-03-23T08:24:22.296Z,4.22
2018-03-23T08:25:22.252Z,4.33
2018-03-23T08:26:22.258Z,4.29
2018-03-23T08:27:22.264Z,4.33
2018-03-23T08:28:22.269Z,4.34
2018-03-23T08:29:22.278Z,4.28
2018-03-23T08:30:22.289Z,4.25
2018-03-23T08:31:22.286Z,4.25
2018-03-23T08:32:22.291Z,4.33
2018-03-23T08:33:22.297Z,4.28
2018-03-23T08:34:22.302Z,4.29
2018-03-23T08:35:22.307Z,4.25
2018-03-23T08:36:22.338Z,4.28
2018-03-23T08:37:22.799Z,4.25
2018-03-23T08:38:22.326Z,4.26
2018-03-23T08:39:22.328Z,4.28
2018-03-23T08:40:22.336Z,4.24
2018-03-23T08:41:22.343Z,4.15
2018-03-23T08:42:22.600Z,4.18
2018-03-23T08:43:22.357Z,4.19
2018-03-23T08:44:22.382Z,4.15
2018-03-23T08:45:22.364Z,4.10
2018-03-23T08:46:22.372Z,4.16
2018-03-23T08:47:22.375Z,4.28
2018-03-23T08:48:22.430Z,4.36
2018-03-23T08:49:22.386Z,4.43
2018-03-23T08:50:22.392Z,4.43
2018-03-23T08:51:22.398Z,4.52
2018-03-23T08:52:22.404Z,4.39
2018-03-23T08:53:22.412Z,4.42
2018-03-23T08:54:22.415Z,4.37
2018-03-23T08:55:22.422Z,4.59
2018-03-23T08:56:22.429Z,4.46
2018-03-23T08:57:22.434Z,4.61
2018-03-23T08:58:22.439Z,4.58
2018-03-23T08:59:22.443Z,4.70
2018-03-23T09:00:22.449Z,4.79
2018-03-23T09:01:22.455Z,4.92
2018-03-23T09:02:22.461Z,4.99
2018-03-23T09:03:22.470Z,4.99
2018-03-23T09:04:22.479Z,4.96
2018-03-23T09:05:22.477Z,4.98
2018-03-23T09:06:22.483Z,5.09
2018-03-23T09:07:22.487Z,4.98
2018-03-23T09:08:22.498Z,4.94
2018-03-23T09:09:22.502Z,4.86
2018-03-23T09:10:22.510Z,4.84
2018-03-23T09:11:22.512Z,4.76
2018-03-23T09:12:22.518Z,4.83
2018-03-23T09:13:22.527Z,4.80
2018-03-23T09:14:22.532Z,4.80
2018-03-23T09:15:22.588Z,4.88
2018-03-23T09:16:22.543Z,4.86
2018-03-23T09:17:22.548Z,4.80
2018-03-23T09:18:22.559Z,4.94
2018-03-23T09:19:22.558Z,4.86
2018-03-23T09:20:22.570Z,4.84
2018-03-23T09:21:22.575Z,4.84
2018-03-23T09:22:22.578Z,4.80
2018-03-23T09:23:22.587Z,4.86
2018-03-23T09:24:22.590Z,4.77
2018-03-23T09:25:22.597Z,4.73
2018-03-23T09:26:22.601Z,4.80
2018-03-23T09:27:22.606Z,4.88
2018-03-23T09:28:22.612Z,4.88
2018-03-23T09:29:22.619Z,4.96
2018-03-23T09:30:22.623Z,4.98
2018-03-23T09:31:22.630Z,4.89
2018-03-23T09:32:22.637Z,4.77
2018-03-23T09:33:22.649Z,4.76
2018-03-23T09:34:22.648Z,4.76
2018-03-23T09:35:22.658Z,4.77
2018-03-23T09:36:22.660Z,4.84
2018-03-23T09:37:22.664Z,4.84
2018-03-23T09:38:22.672Z,4.99
2018-03-23T09:39:22.678Z,4.92
2018-03-23T09:40:22.683Z,4.89
2018-03-23T09:41:22.687Z,4.99
2018-03-23T09:42:22.699Z,4.89
2018-03-23T09:43:22.705Z,4.84
2018-03-23T09:44:22.719Z,4.84
2018-03-23T09:45:22.713Z,5.05
2018-03-23T09:46:22.717Z,4.99
2018-03-23T09:47:22.724Z,5.01
2018-03-23T09:48:22.731Z,5.05
2018-03-23T09:49:22.740Z,5.09
2018-03-23T09:50:22.782Z,5.10
2018-03-23T09:51:22.752Z,5.23
2018-03-23T09:52:22.752Z,5.19
2018-03-23T09:53:22.759Z,5.10
2018-03-23T09:54:22.772Z,5.20
2018-03-23T09:55:22.769Z,5.27
2018-03-23T09:56:22.776Z,5.28
2018-03-23T09:57:22.784Z,5.32
2018-03-23T09:58:22.787Z,5.34
2018-03-23T09:59:22.799Z,5.27
2018-03-23T10:00:22.799Z,5.25
2018-03-23T10:01:22.805Z,5.31
2018-03-23T10:02:22.813Z,5.37
2018-03-23T10:03:22.819Z,5.49
2018-03-23T10:04:22.826Z,5.43
2018-03-23T10:05:22.889Z,5.45
2018-03-23T10:06:22.840Z,5.57
2018-03-23T10:07:22.842Z,5.52
2018-03-23T10:08:22.855Z,5.70
2018-03-23T10:09:22.856Z,5.81
2018-03-23T10:10:22.862Z,5.64
2018-03-23T10:11:22.866Z,5.75
2018-03-23T10:12:22.878Z,5.81
2018-03-23T10:13:22.881Z,5.71
2018-03-23T10:14:22.888Z,5.86
2018-03-23T10:15:22.899Z,5.78
2018-03-23T10:16:22.900Z,5.70
2018-03-23T10:17:22.917Z,5.48
2018-03-23T10:18:22.913Z,5.57
2018-03-23T10:19:22.921Z,5.55
2018-03-23T10:20:22.925Z,5.66
2018-03-23T10:21:23.124Z,5.70
2018-03-23T10:22:22.937Z,5.78
2018-03-23T10:23:22.944Z,5.68
2018-03-23T10:24:22.952Z,5.81
2018-03-23T10:25:22.956Z,5.91
2018-03-23T10:26:23.001Z,5.86
2018-03-23T10:27:22.969Z,5.81
2018-03-23T10:28:22.977Z,5.91
2018-03-23T10:29:22.981Z,5.85
2018-03-23T10:30:22.989Z,5.98
2018-03-23T10:31:22.994Z,5.98
2018-03-23T10:32:23.002Z,6.19
2018-03-23T10:33:23.009Z,6.25
2018-03-23T10:34:23.018Z,6.33
2018-03-23T10:35:23.048Z,6.28
2018-03-23T10:36:23.031Z,6.32
2018-03-23T10:37:23.040Z,6.35
2018-03-23T10:38:23.041Z,6.36
2018-03-23T10:39:23.048Z,6.40
2018-03-23T10:40:23.054Z,6.54
2018-03-23T10:41:23.061Z,6.59
2018-03-23T10:42:23.070Z,6.69
2018-03-23T10:43:23.074Z,6.87
2018-03-23T10:44:23.092Z,6.59
2018-03-23T10:45:23.088Z,6.56
2018-03-23T10:46:23.096Z,6.65
2018-03-23T10:47:23.103Z,6.81
2018-03-23T10:48:23.109Z,6.69
2018-03-23T10:49:23.114Z,6.77
2018-03-23T10:50:23.124Z,6.77
2018-03-23T10:51:23.141Z,6.68
2018-03-23T10:52:23.136Z,6.73
2018-03-23T10:53:23.150Z,6.71
2018-03-23T10:54:23.167Z,6.65
2018-03-23T10:55:23.156Z,6.69
2018-03-23T10:56:23.165Z,6.72
2018-03-23T10:57:23.176Z,6.61
2018-03-23T10:58:23.183Z,6.48
2018-03-23T10:59:23.187Z,6.58
2018-03-23T11:00:23.194Z,6.48
2018-03-23T11:01:23.203Z,6.48
2018-03-23T11:02:23.207Z,6.47
2018-03-23T11:03:23.215Z,6.54
2018-03-23T11:04:23.230Z,6.35
2018-03-23T11:05:23.228Z,6.41
2018-03-23T11:06:23.238Z,6.46
2018-03-23T11:07:23.254Z,6.48
2018-03-23T11:08:23.250Z,6.53
2018-03-23T11:09:23.256Z,6.51
2018-03-23T11:10:23.264Z,6.51
2018-03-23T11:11:23.270Z,6.58
2018-03-23T11:12:23.281Z,6.46
2018-03-23T11:13:23.285Z,6.50
2018-03-23T11:14:23.293Z,6.33
2018-03-23T11:15:23.298Z,6.44
2018-03-23T11:16:23.305Z,6.33
2018-03-23T11:17:23.315Z,6.32
2018-03-23T11:18:23.323Z,6.47
2018-03-23T11:19:23.325Z,6.56
2018-03-23T11:20:23.335Z,6.59
2018-03-23T11:21:23.339Z,6.56
2018-03-23T11:22:23.348Z,6.50
2018-03-23T11:23:23.354Z,6.48
2018-03-23T11:24:23.362Z,6.59
2018-03-23T11:25:23.368Z,6.63
2018-03-23T11:26:23.372Z,6.47
2018-03-23T11:27:23.382Z,6.33
2018-03-23T11:28:23.388Z,6.29
2018-03-23T11:29:23.392Z,6.35
2018-03-23T11:30:23.400Z,6.50
2018-03-23T11:31:23.407Z,6.47
2018-03-23T11:32:23.413Z,6.53
2018-03-23T11:33:23.424Z,6.72
2018-03-23T11:34:23.428Z,6.71
2018-03-23T11:35:23.431Z,6.95
2018-03-23T11:36:23.441Z,6.89
2018-03-23T11:37:23.445Z,6.90
2018-03-23T11:38:23.453Z,6.94
2018-03-23T11:39:23.470Z,6.77
2018-03-23T11:40:23.466Z,6.83
2018-03-23T11:41:23.473Z,6.86
2018-03-23T11:42:23.484Z,6.90
2018-03-23T11:43:23.487Z,6.89
2018-03-23T11:44:23.522Z,6.97
2018-03-23T11:45:23.502Z,6.83
2018-03-23T11:46:23.509Z,6.79
2018-03-23T11:47:23.515Z,6.80
2018-03-23T11:48:23.526Z,6.84
2018-03-23T11:49:23.531Z,6.83
2018-03-23T11:50:23.537Z,6.90
2018-03-23T11:51:23.543Z,6.81
2018-03-23T11:52:23.550Z,6.71
2018-03-23T11:53:23.555Z,6.71
2018-03-23T11:54:23.565Z,6.83
2018-03-23T11:55:23.572Z,6.91
2018-03-23T11:56:23.594Z,7.07
2018-03-23T11:57:23.587Z,6.99
2018-03-23T11:58:23.591Z,6.84
2018-03-23T11:59:23.601Z,6.98
2018-03-23T12:00:23.607Z,7.04
2018-03-23T12:01:23.612Z,7.04
2018-03-23T12:02:23.622Z,6.95
2018-03-23T12:03:23.626Z,6.94
2018-03-23T12:04:23.632Z,7.01
2018-03-23T12:05:23.649Z,7.07
2018-03-23T12:06:23.649Z,7.13
2018-03-23T12:07:23.656Z,7.19
2018-03-23T12:08:23.664Z,6.95
2018-03-23T12:09:23.672Z,6.89
2018-03-23T12:10:23.681Z,7.02
2018-03-23T12:11:23.686Z,7.04
2018-03-23T12:12:23.691Z,6.98
2018-03-23T12:13:23.699Z,7.08
2018-03-23T12:14:23.753Z,7.05
2018-03-23T12:15:23.713Z,7.09
2018-03-23T12:16:23.720Z,6.86
2018-03-23T12:17:23.727Z,6.95
2018-03-23T12:18:23.736Z,7.01
2018-03-23T12:19:23.742Z,7.08
2018-03-23T12:20:23.747Z,7.15
2018-03-23T12:21:23.938Z,7.09
2018-03-23T12:22:23.763Z,7.24
2018-03-23T12:23:23.770Z,7.19
2018-03-23T12:24:23.777Z,7.19
2018-03-23T12:25:24.316Z,7.13
2018-03-23T12:26:23.900Z,7.13
2018-03-23T12:27:23.797Z,7.22
2018-03-23T12:28:23.809Z,7.08
2018-03-23T12:29:23.812Z,7.13
2018-03-23T12:30:23.819Z,6.98
2018-03-23T12:31:23.828Z,7.08
2018-03-23T12:32:23.834Z,7.17
2018-03-23T12:33:23.845Z,7.07
2018-03-23T12:34:23.848Z,7.19
2018-03-23T12:35:23.855Z,7.12
2018-03-23T12:36:23.863Z,7.02
2018-03-23T12:37:23.869Z,7.08
2018-03-23T12:38:23.879Z,7.22
2018-03-23T12:39:23.883Z,7.15
2018-03-23T12:40:23.891Z,7.07
2018-03-23T12:41:23.899Z,7.09
2018-03-23T12:42:23.907Z,6.99
2018-03-23T12:43:23.912Z,6.89
2018-03-23T12:44:23.918Z,6.98
2018-03-23T12:45:23.928Z,7.04
2018-03-23T12:46:23.933Z,6.98
2018-03-23T12:47:23.942Z,6.94
2018-03-23T12:48:23.948Z,6.83
2018-03-23T12:49:23.959Z,6.95
2018-03-23T12:50:23.965Z,6.95
2018-03-23T12:51:23.969Z,7.01
2018-03-23T12:52:23.976Z,7.02
2018-03-23T12:53:23.983Z,7.15
2018-03-23T12:54:23.991Z,6.98
2018-03-23T12:55:24.000Z,6.95
2018-03-23T12:56:24.006Z,6.84
2018-03-23T12:57:24.010Z,6.87
2018-03-23T12:58:24.016Z,6.95
2018-03-23T12:59:24.028Z,6.87
2018-03-23T13:00:24.032Z,6.89
2018-03-23T13:01:24.040Z,6.81
2018-03-23T13:02:24.045Z,6.83
2018-03-23T13:03:24.052Z,6.84
2018-03-23T13:04:24.060Z,6.79
2018-03-23T13:05:24.073Z,6.68
2018-03-23T13:06:24.073Z,6.79
2018-03-23T13:07:24.079Z,6.77
2018-03-23T13:08:24.093Z,6.77
2018-03-23T13:09:24.109Z,6.83
2018-03-23T13:10:24.110Z,6.77
2018-03-23T13:11:24.108Z,6.77
2018-03-23T13:12:24.116Z,6.59
2018-03-23T13:13:24.120Z,6.65
2018-03-23T13:14:24.128Z,6.77
2018-03-23T13:15:24.136Z,6.66
2018-03-23T13:16:24.142Z,6.68
2018-03-23T13:17:24.148Z,6.73
2018-03-23T13:18:24.154Z,6.77
2018-03-23T13:19:24.161Z,6.83
2018-03-23T13:20:24.175Z,6.87
2018-03-23T13:21:24.174Z,6.81
2018-03-23T13:22:24.183Z,6.94
2018-03-23T13:23:24.187Z,6.98
2018-03-23T13:24:24.195Z,7.07
2018-03-23T13:25:24.203Z,6.99
2018-03-23T13:26:24.209Z,7.02
2018-03-23T13:27:24.216Z,6.99
2018-03-23T13:28:24.220Z,7.15
2018-03-23T13:29:24.230Z,7.20